Time;durP1;ratioP1;P1;durP2;ratioP2;P2;SDS_P1;SDS_P2;PMS_P1;PMS_P2;Temp;Humidity;BMP_temperature;BMP_pressure;BME280_temperature;BME280_humidity;BME280_pressure;Samples;Min_cycle;Max_cycle;Signal;HPM_P1;HPM_P2
2021/06/16 00:01:46;;;;;;;;;;;19.80;56.30;;;;;;491345;241;1306;-45
2021/06/16 00:03:47;;;;;;;;;;;19.80;56.30;;;;;;491295;241;1155;-45
2021/06/16 00:05:49;;;;;;;;;;;19.80;56.30;;;;;;491341;241;1114;-45
2021/06/16 00:07:50;;;;;;;;;;;19.80;56.30;;;;;;491614;241;1183;-45
2021/06/16 00:09:51;;;;;;;;;;;19.80;56.30;;;;;;491710;241;1037;-45
2021/06/16 00:11:53;;;;;;;;;;;19.80;56.30;;;;;;491380;241;1146;-45
2021/06/16 00:13:54;;;;;;;;;;;19.80;56.30;;;;;;491720;241;1027;-45
2021/06/16 00:15:56;;;;;;;;;;;19.80;56.40;;;;;;491250;241;1214;-45
2021/06/16 00:17:57;;;;;;;;;;;19.80;56.30;;;;;;491257;241;1065;-45
2021/06/16 00:19:59;;;;;;;;;;;19.70;56.30;;;;;;491257;241;2221;-45
2021/06/16 00:22:00;;;;;;;;;;;19.80;56.30;;;;;;491158;241;1196;-45
2021/06/16 00:24:01;;;;;;;;;;;19.70;56.30;;;;;;491222;241;1059;-45
2021/06/16 00:26:03;;;;;;;;;;;19.70;56.40;;;;;;491477;241;1595;-45
2021/06/16 00:28:04;;;;;;;;;;;19.70;56.40;;;;;;491291;241;1049;-45
2021/06/16 00:30:05;;;;;;;;;;;19.70;56.50;;;;;;491758;241;1029;-45
2021/06/16 00:32:07;;;;;;;;;;;19.70;56.40;;;;;;491258;241;1236;-45
2021/06/16 00:34:08;;;;;;;;;;;19.70;56.50;;;;;;491525;241;1167;-45
2021/06/16 00:36:09;;;;;;;;;;;19.70;56.60;;;;;;491478;241;1382;-45
2021/06/16 00:38:11;;;;;;;;;;;19.70;56.40;;;;;;491595;241;1145;-45
2021/06/16 00:40:12;;;;;;;;;;;19.70;56.40;;;;;;491407;241;2172;-45
2021/06/16 00:42:13;;;;;;;;;;;19.70;56.50;;;;;;491403;241;1098;-45
2021/06/16 00:44:16;;;;;;;;;;;19.70;56.40;;;;;;491247;241;1381;-45
2021/06/16 00:46:17;;;;;;;;;;;19.70;56.50;;;;;;491648;241;1071;-45
2021/06/16 00:48:18;;;;;;;;;;;19.60;56.50;;;;;;491456;241;1260;-45
2021/06/16 00:50:20;;;;;;;;;;;19.60;56.50;;;;;;491284;241;1242;-45
2021/06/16 00:52:21;;;;;;;;;;;19.60;56.50;;;;;;491679;241;1042;-45
2021/06/16 00:54:22;;;;;;;;;;;19.60;56.50;;;;;;491265;241;1158;-45
2021/06/16 00:56:24;;;;;;;;;;;19.60;56.50;;;;;;491283;241;1146;-45
2021/06/16 00:58:25;;;;;;;;;;;19.60;56.60;;;;;;491779;240;1441;-45
2021/06/16 01:00:26;;;;;;;;;;;19.60;56.50;;;;;;491291;241;2188;-45
2021/06/16 01:02:28;;;;;;;;;;;19.60;56.60;;;;;;491680;241;1076;-45
2021/06/16 01:04:30;;;;;;;;;;;19.60;56.60;;;;;;491519;241;1120;-45
2021/06/16 01:06:30;;;;;;;;;;;19.60;56.60;;;;;;491191;241;1993;-45
2021/06/16 01:08:32;;;;;;;;;;;19.60;56.60;;;;;;491628;241;1027;-45
2021/06/16 01:10:34;;;;;;;;;;;19.60;56.50;;;;;;491734;241;1065;-45
2021/06/16 01:12:36;;;;;;;;;;;19.60;56.50;;;;;;491484;241;1051;-45
2021/06/16 01:14:37;;;;;;;;;;;19.60;56.50;;;;;;491210;241;1073;-44
2021/06/16 01:16:38;;;;;;;;;;;19.60;56.60;;;;;;491694;241;1098;-45
2021/06/16 01:18:40;;;;;;;;;;;19.60;56.60;;;;;;491300;241;1051;-45
2021/06/16 01:20:41;;;;;;;;;;;19.60;56.70;;;;;;491306;241;2181;-45
2021/06/16 01:22:42;;;;;;;;;;;19.60;56.60;;;;;;491748;241;1223;-45
2021/06/16 01:24:44;;;;;;;;;;;19.60;56.70;;;;;;491725;241;1306;-45
2021/06/16 01:26:45;;;;;;;;;;;19.60;56.70;;;;;;491543;241;1161;-45
2021/06/16 01:28:46;;;;;;;;;;;19.60;56.80;;;;;;491386;241;1073;-45
2021/06/16 01:30:48;;;;;;;;;;;19.60;56.80;;;;;;491538;241;1053;-45
2021/06/16 01:32:49;;;;;;;;;;;19.60;56.70;;;;;;491590;241;1708;-45
2021/06/16 01:34:50;;;;;;;;;;;19.60;56.70;;;;;;491480;241;1186;-45
2021/06/16 01:36:52;;;;;;;;;;;19.60;56.70;;;;;;491324;241;1387;-45
2021/06/16 01:38:53;;;;;;;;;;;19.60;56.70;;;;;;491687;241;1025;-45
2021/06/16 01:40:54;;;;;;;;;;;19.50;56.70;;;;;;491407;241;2121;-45
2021/06/16 01:42:56;;;;;;;;;;;19.60;56.70;;;;;;491267;241;1176;-45
2021/06/16 01:44:57;;;;;;;;;;;19.60;56.70;;;;;;491744;241;1090;-45
2021/06/16 01:46:58;;;;;;;;;;;19.60;56.60;;;;;;491371;241;1290;-45
2021/06/16 01:49:00;;;;;;;;;;;19.60;56.70;;;;;;491776;241;1292;-45
2021/06/16 01:51:01;;;;;;;;;;;19.60;56.60;;;;;;491282;241;1170;-45
2021/06/16 01:53:02;;;;;;;;;;;19.60;56.70;;;;;;491329;241;1064;-45
2021/06/16 01:55:04;;;;;;;;;;;19.60;56.60;;;;;;491542;241;1058;-45
2021/06/16 01:57:05;;;;;;;;;;;19.60;56.70;;;;;;491762;241;2188;-45
2021/06/16 01:59:07;;;;;;;;;;;19.60;56.60;;;;;;491317;241;2192;-45
2021/06/16 02:01:08;;;;;;;;;;;19.60;56.60;;;;;;491678;241;1927;-45
2021/06/16 02:03:09;;;;;;;;;;;19.60;56.70;;;;;;491765;241;1098;-45
2021/06/16 02:05:10;;;;;;;;;;;19.60;56.70;;;;;;491315;241;1267;-45
2021/06/16 02:07:11;;;;;;;;;;;19.60;56.60;;;;;;491245;241;1210;-45
2021/06/16 02:09:13;;;;;;;;;;;19.60;56.70;;;;;;491381;241;1054;-45
2021/06/16 02:11:14;;;;;;;;;;;19.50;56.60;;;;;;491636;241;1077;-45
2021/06/16 02:13:15;;;;;;;;;;;19.50;56.70;;;;;;491310;241;1078;-45
2021/06/16 02:15:17;;;;;;;;;;;19.50;56.70;;;;;;491589;241;1049;-45
2021/06/16 02:17:18;;;;;;;;;;;19.50;56.70;;;;;;491311;241;1166;-45
2021/06/16 02:19:19;;;;;;;;;;;19.50;56.60;;;;;;491774;241;2192;-45
2021/06/16 02:21:21;;;;;;;;;;;19.50;56.70;;;;;;491307;241;1632;-45
2021/06/16 02:23:22;;;;;;;;;;;19.50;56.60;;;;;;491778;241;1205;-45
2021/06/16 02:25:23;;;;;;;;;;;19.50;56.60;;;;;;491401;241;1196;-45
2021/06/16 02:27:25;;;;;;;;;;;19.50;56.60;;;;;;491291;241;1245;-45
2021/06/16 02:29:26;;;;;;;;;;;19.50;56.60;;;;;;491324;241;1101;-45
2021/06/16 02:31:27;;;;;;;;;;;19.50;56.70;;;;;;491372;241;1208;-44
2021/06/16 02:33:29;;;;;;;;;;;19.50;56.70;;;;;;491360;241;1142;-45
2021/06/16 02:35:30;;;;;;;;;;;19.50;56.70;;;;;;491463;241;1176;-45
2021/06/16 02:37:31;;;;;;;;;;;19.50;56.70;;;;;;491282;241;1223;-45
2021/06/16 02:39:33;;;;;;;;;;;19.50;56.80;;;;;;491248;241;2208;-45
2021/06/16 02:41:34;;;;;;;;;;;19.50;56.70;;;;;;491560;241;1171;-45
2021/06/16 02:43:35;;;;;;;;;;;19.50;56.80;;;;;;491308;241;1166;-45
2021/06/16 02:45:37;;;;;;;;;;;19.50;56.80;;;;;;491780;241;1043;-45
2021/06/16 02:47:38;;;;;;;;;;;19.50;56.90;;;;;;491291;241;1194;-45
2021/06/16 02:49:39;;;;;;;;;;;19.40;56.80;;;;;;491787;241;1094;-45
2021/06/16 02:51:41;;;;;;;;;;;19.40;56.70;;;;;;491326;241;1175;-44
2021/06/16 02:53:42;;;;;;;;;;;19.50;56.80;;;;;;491833;241;2360;-45
2021/06/16 02:55:43;;;;;;;;;;;19.50;56.80;;;;;;491658;241;1087;-45
2021/06/16 02:57:45;;;;;;;;;;;19.50;56.70;;;;;;491753;241;1252;-45
2021/06/16 02:59:46;;;;;;;;;;;19.40;56.70;;;;;;491330;241;2193;-45
2021/06/16 03:01:47;;;;;;;;;;;19.50;56.70;;;;;;491461;241;1361;-45
2021/06/16 03:03:49;;;;;;;;;;;19.50;56.80;;;;;;491561;241;1236;-45
2021/06/16 03:05:50;;;;;;;;;;;19.40;56.80;;;;;;491560;241;1142;-45
2021/06/16 03:07:51;;;;;;;;;;;19.50;56.80;;;;;;491744;241;1235;-45
2021/06/16 03:09:52;;;;;;;;;;;19.50;56.80;;;;;;491803;241;1015;-45
2021/06/16 03:11:54;;;;;;;;;;;19.40;56.80;;;;;;491242;241;1332;-45
2021/06/16 03:13:55;;;;;;;;;;;19.50;56.70;;;;;;491777;241;1007;-45
2021/06/16 03:15:56;;;;;;;;;;;19.50;56.80;;;;;;491537;241;1178;-45
2021/06/16 03:17:58;;;;;;;;;;;19.40;56.70;;;;;;491692;241;1293;-45
2021/06/16 03:19:59;;;;;;;;;;;19.50;56.70;;;;;;491789;241;2195;-45
2021/06/16 03:22:00;;;;;;;;;;;19.50;56.80;;;;;;491291;241;1374;-44
2021/06/16 03:24:02;;;;;;;;;;;19.50;56.70;;;;;;491305;241;1109;-45
2021/06/16 03:26:03;;;;;;;;;;;19.50;56.70;;;;;;491234;241;1159;-45
2021/06/16 03:28:04;;;;;;;;;;;19.40;56.70;;;;;;491522;241;1254;-45
2021/06/16 03:30:06;;;;;;;;;;;19.50;56.80;;;;;;491713;241;1044;-45
2021/06/16 03:32:08;;;;;;;;;;;19.40;56.80;;;;;;491641;241;1105;-45
2021/06/16 03:34:09;;;;;;;;;;;19.50;56.80;;;;;;491556;241;1136;-45
2021/06/16 03:36:10;;;;;;;;;;;19.40;56.70;;;;;;491364;241;1119;-45
2021/06/16 03:38:12;;;;;;;;;;;19.40;56.70;;;;;;491748;241;1058;-45
2021/06/16 03:40:13;;;;;;;;;;;19.40;56.70;;;;;;491408;241;2193;-45
2021/06/16 03:42:14;;;;;;;;;;;19.50;56.70;;;;;;491638;241;1119;-45
2021/06/16 03:44:16;;;;;;;;;;;19.50;56.80;;;;;;491625;241;1079;-45
2021/06/16 03:46:17;;;;;;;;;;;19.40;56.70;;;;;;491581;241;1024;-45
2021/06/16 03:48:18;;;;;;;;;;;19.40;56.70;;;;;;491301;241;1067;-45
2021/06/16 03:50:20;;;;;;;;;;;19.40;56.80;;;;;;491759;241;1056;-45
2021/06/16 03:52:21;;;;;;;;;;;19.40;56.80;;;;;;491258;241;1180;-45
2021/06/16 03:54:23;;;;;;;;;;;19.40;56.80;;;;;;491224;241;1100;-45
2021/06/16 03:56:24;;;;;;;;;;;19.50;56.80;;;;;;491253;241;1103;-45
2021/06/16 03:58:25;;;;;;;;;;;19.40;56.70;;;;;;491291;241;1086;-45
2021/06/16 04:00:27;;;;;;;;;;;19.40;56.70;;;;;;491708;241;2141;-45
2021/06/16 04:02:28;;;;;;;;;;;19.50;56.80;;;;;;491311;241;1063;-45
2021/06/16 04:04:29;;;;;;;;;;;19.40;56.80;;;;;;491293;241;1083;-45
2021/06/16 04:06:31;;;;;;;;;;;19.40;56.90;;;;;;491512;241;1213;-45
2021/06/16 04:08:32;;;;;;;;;;;19.40;56.90;;;;;;491434;241;1201;-45
2021/06/16 04:10:33;;;;;;;;;;;19.40;56.90;;;;;;491310;241;1042;-45
2021/06/16 04:12:35;;;;;;;;;;;19.40;56.90;;;;;;491738;241;1144;-45
2021/06/16 04:14:38;;;;;;;;;;;19.40;56.90;;;;;;491746;241;1063;-45
2021/06/16 04:16:37;;;;;;;;;;;19.40;57.00;;;;;;491309;240;2148;-45
2021/06/16 04:18:39;;;;;;;;;;;19.40;56.90;;;;;;491200;241;1001;-45
2021/06/16 04:20:40;;;;;;;;;;;19.40;56.90;;;;;;491185;241;2192;-45
2021/06/16 04:22:42;;;;;;;;;;;19.40;56.90;;;;;;491223;241;1141;-45
2021/06/16 04:24:43;;;;;;;;;;;19.40;56.80;;;;;;491182;241;1378;-45
2021/06/16 04:26:44;;;;;;;;;;;19.40;56.80;;;;;;491071;241;1334;-45
2021/06/16 04:28:46;;;;;;;;;;;19.40;56.80;;;;;;491464;241;1078;-44
2021/06/16 04:30:47;;;;;;;;;;;19.40;56.80;;;;;;491252;241;1280;-45
2021/06/16 04:32:48;;;;;;;;;;;19.40;56.90;;;;;;491218;241;1630;-45
2021/06/16 04:34:50;;;;;;;;;;;19.40;56.90;;;;;;491194;241;1225;-45
2021/06/16 04:36:51;;;;;;;;;;;19.40;57.00;;;;;;491637;235;1170;-45
2021/06/16 04:38:52;;;;;;;;;;;19.40;56.90;;;;;;491100;241;1082;-45
2021/06/16 04:40:54;;;;;;;;;;;19.40;56.80;;;;;;491093;241;2180;-45
2021/06/16 04:42:55;;;;;;;;;;;19.60;56.40;;;;;;491139;241;1040;-45
2021/06/16 04:44:56;;;;;;;;;;;20.00;55.50;;;;;;491149;241;1071;-45
2021/06/16 04:46:58;;;;;;;;;;;20.20;54.50;;;;;;491619;241;1111;-45
2021/06/16 04:48:59;;;;;;;;;;;20.40;53.90;;;;;;491550;241;1124;-45
2021/06/16 04:51:00;;;;;;;;;;;20.60;53.30;;;;;;491532;241;1367;-45
2021/06/16 04:53:01;;;;;;;;;;;20.80;53.10;;;;;;491235;241;1088;-45
2021/06/16 04:55:03;;;;;;;;;;;20.90;52.80;;;;;;491137;241;1054;-45
2021/06/16 04:57:05;;;;;;;;;;;20.90;52.60;;;;;;491153;241;1272;-45
2021/06/16 04:59:06;;;;;;;;;;;21.00;52.50;;;;;;491375;241;1083;-45
2021/06/16 05:01:07;;;;;;;;;;;21.00;52.30;;;;;;490991;241;2403;-45
2021/06/16 05:03:08;;;;;;;;;;;21.20;52.10;;;;;;491020;241;1233;-45
2021/06/16 05:05:09;;;;;;;;;;;21.20;52.00;;;;;;491229;241;1064;-45
2021/06/16 05:07:11;;;;;;;;;;;21.20;51.90;;;;;;490909;241;1188;-45
2021/06/16 05:09:12;;;;;;;;;;;21.30;51.80;;;;;;491136;241;1226;-45
2021/06/16 05:11:14;;;;;;;;;;;21.30;51.60;;;;;;491145;241;1303;-45
2021/06/16 05:13:15;;;;;;;;;;;21.40;51.50;;;;;;491159;241;1472;-45
2021/06/16 05:15:16;;;;;;;;;;;21.40;51.40;;;;;;491540;241;1070;-45
2021/06/16 05:17:19;;;;;;;;;;;21.40;51.30;;;;;;491123;241;1215;-45
2021/06/16 05:19:22;;;;;;;;;;;21.50;51.20;;;;;;491279;241;2343;-45
2021/06/16 05:21:20;;;;;;;;;;;21.50;51.20;;;;;;491080;241;2133;-45
2021/06/16 05:23:22;;;;;;;;;;;21.50;51.10;;;;;;491094;241;1190;-45
2021/06/16 05:25:23;;;;;;;;;;;21.50;51.10;;;;;;491475;241;1050;-45
2021/06/16 05:27:24;;;;;;;;;;;21.60;51.00;;;;;;491055;241;1186;-45
2021/06/16 05:29:26;;;;;;;;;;;21.60;50.90;;;;;;490998;241;1236;-45
2021/06/16 05:31:27;;;;;;;;;;;21.70;50.80;;;;;;490982;241;1158;-45
2021/06/16 05:33:28;;;;;;;;;;;21.70;50.80;;;;;;491062;241;1076;-45
2021/06/16 05:35:30;;;;;;;;;;;21.70;50.70;;;;;;491045;241;1218;-45
2021/06/16 05:37:31;;;;;;;;;;;21.80;50.70;;;;;;490977;241;1152;-45
2021/06/16 05:39:32;;;;;;;;;;;21.80;50.70;;;;;;491007;241;1097;-45
2021/06/16 05:41:34;;;;;;;;;;;21.80;50.60;;;;;;490852;241;2192;-45
2021/06/16 05:43:35;;;;;;;;;;;21.90;50.60;;;;;;491066;241;1087;-45
2021/06/16 05:45:36;;;;;;;;;;;21.80;50.60;;;;;;490937;241;1078;-45
2021/06/16 05:47:38;;;;;;;;;;;21.90;50.50;;;;;;490912;241;1256;-45
2021/06/16 05:49:39;;;;;;;;;;;21.90;50.50;;;;;;490857;241;1073;-45
2021/06/16 05:51:41;;;;;;;;;;;21.90;50.50;;;;;;490728;241;1188;-45
2021/06/16 05:53:42;;;;;;;;;;;21.90;50.40;;;;;;490785;241;1184;-45
2021/06/16 05:55:43;;;;;;;;;;;21.90;50.40;;;;;;490742;241;1097;-45
2021/06/16 05:57:45;;;;;;;;;;;21.90;50.40;;;;;;490843;241;1100;-45
2021/06/16 05:59:46;;;;;;;;;;;22.00;50.40;;;;;;491140;241;1177;-45
2021/06/16 06:01:47;;;;;;;;;;;22.10;50.30;;;;;;490729;241;2133;-45
2021/06/16 06:03:49;;;;;;;;;;;22.10;50.20;;;;;;490702;241;1180;-45
2021/06/16 06:05:50;;;;;;;;;;;22.10;50.20;;;;;;490689;241;1085;-45
2021/06/16 06:07:51;;;;;;;;;;;22.10;50.20;;;;;;490750;241;1244;-45
2021/06/16 06:09:53;;;;;;;;;;;22.10;50.20;;;;;;490990;241;1058;-45
2021/06/16 06:11:54;;;;;;;;;;;22.10;50.20;;;;;;490780;241;1535;-45
2021/06/16 06:13:55;;;;;;;;;;;22.20;50.20;;;;;;490817;241;1169;-45
2021/06/16 06:15:57;;;;;;;;;;;22.10;50.00;;;;;;490877;241;1484;-45
2021/06/16 06:17:59;;;;;;;;;;;22.10;50.00;;;;;;490886;241;1133;-45
2021/06/16 06:19:59;;;;;;;;;;;22.10;50.00;;;;;;490669;241;2181;-45
2021/06/16 06:22:01;;;;;;;;;;;22.20;50.10;;;;;;490731;241;2188;-45
2021/06/16 06:24:02;;;;;;;;;;;22.20;50.10;;;;;;490783;241;1175;-45
2021/06/16 06:26:03;;;;;;;;;;;22.10;50.10;;;;;;490789;241;1312;-45
2021/06/16 06:28:05;;;;;;;;;;;22.20;50.00;;;;;;490791;241;1252;-45
2021/06/16 06:30:06;;;;;;;;;;;22.20;49.90;;;;;;490609;241;1097;-45
2021/06/16 06:32:07;;;;;;;;;;;22.20;50.00;;;;;;490537;241;1339;-45
2021/06/16 06:34:09;;;;;;;;;;;22.20;49.90;;;;;;490745;241;1232;-45
2021/06/16 06:36:10;;;;;;;;;;;22.20;49.90;;;;;;490672;241;1133;-45
2021/06/16 06:38:13;;;;;;;;;;;22.20;49.90;;;;;;490752;241;1243;-45
2021/06/16 06:40:13;;;;;;;;;;;22.30;49.90;;;;;;490667;241;1357;-45
2021/06/16 06:42:15;;;;;;;;;;;22.30;49.80;;;;;;491214;241;2184;-45
2021/06/16 06:44:16;;;;;;;;;;;22.30;49.80;;;;;;490630;241;2126;-45
2021/06/16 06:46:17;;;;;;;;;;;22.30;49.70;;;;;;490587;241;1619;-45
2021/06/16 06:48:19;;;;;;;;;;;22.30;49.70;;;;;;490952;241;987;-45
2021/06/16 06:50:20;;;;;;;;;;;22.30;49.80;;;;;;490534;241;1455;-45
2021/06/16 06:52:21;;;;;;;;;;;22.40;49.80;;;;;;490451;241;1212;-45
2021/06/16 06:54:23;;;;;;;;;;;22.40;49.70;;;;;;490502;241;1186;-45
2021/06/16 06:56:24;;;;;;;;;;;22.40;49.70;;;;;;490660;241;1230;-45
2021/06/16 06:58:25;;;;;;;;;;;22.40;49.70;;;;;;490548;241;1098;-45
2021/06/16 07:00:27;;;;;;;;;;;22.50;49.70;;;;;;490348;241;1235;-45
2021/06/16 07:02:28;;;;;;;;;;;22.50;49.60;;;;;;490280;241;2181;-45
2021/06/16 07:04:29;;;;;;;;;;;22.50;49.50;;;;;;490475;241;1180;-45
2021/06/16 07:06:31;;;;;;;;;;;22.50;49.50;;;;;;490366;241;1363;-45
2021/06/16 07:08:32;;;;;;;;;;;22.60;49.50;;;;;;490351;241;1208;-45
2021/06/16 07:10:33;;;;;;;;;;;22.60;49.50;;;;;;489770;241;1257;-45
2021/06/16 07:12:35;;;;;;;;;;;22.60;49.40;;;;;;490473;241;1300;-45
2021/06/16 07:14:39;;;;;;;;;;;22.70;49.50;;;;;;490496;241;1120;-46
2021/06/16 07:16:38;;;;;;;;;;;22.70;49.40;;;;;;490290;241;2131;-45
2021/06/16 07:18:39;;;;;;;;;;;22.70;49.40;;;;;;491350;241;842;-45
2021/06/16 07:20:41;;;;;;;;;;;22.70;49.30;;;;;;490602;241;1151;-45
2021/06/16 07:22:42;;;;;;;;;;;22.80;49.30;;;;;;490554;241;2187;-45
2021/06/16 07:24:43;;;;;;;;;;;22.70;49.20;;;;;;490638;241;1226;-45
2021/06/16 07:26:45;;;;;;;;;;;22.80;49.30;;;;;;490424;241;1188;-45
2021/06/16 07:28:46;;;;;;;;;;;22.80;49.30;;;;;;490364;241;1034;-45
2021/06/16 07:30:47;;;;;;;;;;;22.80;49.20;;;;;;490348;241;1522;-45
2021/06/16 07:32:49;;;;;;;;;;;22.80;49.10;;;;;;490441;241;1176;-45
2021/06/16 07:34:50;;;;;;;;;;;22.90;49.20;;;;;;490568;241;1091;-45
2021/06/16 07:36:52;;;;;;;;;;;22.90;49.10;;;;;;490441;241;1293;-45
2021/06/16 07:38:53;;;;;;;;;;;22.90;49.10;;;;;;490523;241;1225;-45
2021/06/16 07:40:54;;;;;;;;;;;22.90;49.10;;;;;;490567;241;1342;-45
2021/06/16 07:42:55;;;;;;;;;;;22.90;49.00;;;;;;491246;241;2176;-45
2021/06/16 07:44:57;;;;;;;;;;;22.90;49.10;;;;;;490786;241;1279;-45
2021/06/16 07:46:58;;;;;;;;;;;22.90;49.00;;;;;;490259;241;1282;-45
2021/06/16 07:48:59;;;;;;;;;;;22.90;49.00;;;;;;490200;241;1072;-45
2021/06/16 07:51:01;;;;;;;;;;;23.00;49.00;;;;;;490342;241;1207;-45
2021/06/16 07:53:02;;;;;;;;;;;22.90;49.00;;;;;;490378;241;1248;-45
2021/06/16 07:55:04;;;;;;;;;;;23.00;49.00;;;;;;490388;241;1344;-45
2021/06/16 07:57:05;;;;;;;;;;;23.00;49.10;;;;;;490914;241;1035;-45
2021/06/16 07:59:06;;;;;;;;;;;23.00;49.00;;;;;;490634;241;1061;-45
2021/06/16 08:01:08;;;;;;;;;;;23.00;48.90;;;;;;491223;241;876;-45
2021/06/16 08:03:09;;;;;;;;;;;23.00;48.90;;;;;;490595;241;2196;-45
2021/06/16 08:05:10;;;;;;;;;;;23.10;48.90;;;;;;490129;241;1224;-45
2021/06/16 08:07:12;;;;;;;;;;;23.10;48.90;;;;;;490181;241;1135;-45
2021/06/16 08:09:13;;;;;;;;;;;23.10;48.90;;;;;;490177;241;1211;-45
2021/06/16 08:11:14;;;;;;;;;;;23.10;48.90;;;;;;490079;241;1294;-45
2021/06/16 08:13:16;;;;;;;;;;;23.10;49.00;;;;;;490252;241;1321;-45
2021/06/16 08:15:17;;;;;;;;;;;23.10;49.00;;;;;;490461;241;1179;-45
2021/06/16 08:17:18;;;;;;;;;;;23.10;49.00;;;;;;490526;241;1150;-45
2021/06/16 08:19:20;;;;;;;;;;;23.10;49.00;;;;;;490558;241;1130;-45
2021/06/16 08:21:21;;;;;;;;;;;23.10;49.00;;;;;;490349;241;1090;-45
2021/06/16 08:23:23;;;;;;;;;;;23.20;49.00;;;;;;490429;241;1075;-45
2021/06/16 08:25:24;;;;;;;;;;;23.10;49.00;;;;;;490518;241;1297;-45
2021/06/16 08:27:25;;;;;;;;;;;23.20;49.00;;;;;;490539;241;1201;-45
2021/06/16 08:29:26;;;;;;;;;;;23.20;49.00;;;;;;490453;241;1189;-45
2021/06/16 08:31:28;;;;;;;;;;;23.20;48.90;;;;;;490285;241;1199;-45
2021/06/16 08:33:29;;;;;;;;;;;23.20;48.90;;;;;;490137;241;1153;-45
2021/06/16 08:35:31;;;;;;;;;;;23.20;49.00;;;;;;489726;241;1359;-45
2021/06/16 08:37:32;;;;;;;;;;;23.20;48.90;;;;;;490189;241;1293;-45
2021/06/16 08:39:33;;;;;;;;;;;23.30;48.90;;;;;;490225;241;1192;-45
2021/06/16 08:41:34;;;;;;;;;;;23.30;48.90;;;;;;490080;241;2145;-45
2021/06/16 08:43:36;;;;;;;;;;;23.30;48.90;;;;;;490307;241;1115;-45
2021/06/16 08:45:37;;;;;;;;;;;23.30;48.90;;;;;;490306;241;1396;-45
2021/06/16 08:47:39;;;;;;;;;;;23.30;48.80;;;;;;490461;241;1128;-45
2021/06/16 08:49:40;;;;;;;;;;;23.30;48.80;;;;;;489665;241;1075;-45
2021/06/16 08:51:41;;;;;;;;;;;23.30;48.90;;;;;;490102;241;1407;-45
2021/06/16 08:53:43;;;;;;;;;;;23.30;48.80;;;;;;490291;241;1247;-45
2021/06/16 08:55:44;;;;;;;;;;;23.30;48.90;;;;;;490144;241;1300;-45
2021/06/16 08:57:45;;;;;;;;;;;23.30;48.80;;;;;;490411;241;1150;-45
2021/06/16 08:59:47;;;;;;;;;;;23.30;48.80;;;;;;490282;241;1080;-45
2021/06/16 09:01:48;;;;;;;;;;;23.30;48.80;;;;;;490158;241;2137;-45
2021/06/16 09:03:49;;;;;;;;;;;23.40;48.80;;;;;;490418;241;1112;-45
2021/06/16 09:05:51;;;;;;;;;;;23.30;48.80;;;;;;490404;241;1187;-45
2021/06/16 09:07:52;;;;;;;;;;;23.30;48.80;;;;;;490186;241;1220;-45
2021/06/16 09:09:54;;;;;;;;;;;23.40;48.90;;;;;;490333;241;1167;-45
2021/06/16 09:11:55;;;;;;;;;;;23.30;48.80;;;;;;490361;241;1236;-45
2021/06/16 09:13:56;;;;;;;;;;;23.40;48.80;;;;;;490388;241;1152;-45
2021/06/16 09:15:58;;;;;;;;;;;23.40;48.80;;;;;;490379;241;1227;-45
2021/06/16 09:17:59;;;;;;;;;;;23.40;48.70;;;;;;490539;241;1157;-45
2021/06/16 09:20:01;;;;;;;;;;;23.40;48.80;;;;;;490294;241;1168;-45
2021/06/16 09:22:02;;;;;;;;;;;23.40;48.80;;;;;;490246;241;2196;-45
2021/06/16 09:24:03;;;;;;;;;;;23.40;48.80;;;;;;490415;241;1217;-45
2021/06/16 09:26:05;;;;;;;;;;;23.40;48.70;;;;;;490486;241;1256;-45
2021/06/16 09:28:06;;;;;;;;;;;23.40;48.70;;;;;;490523;241;1519;-45
2021/06/16 09:30:07;;;;;;;;;;;23.40;48.70;;;;;;490477;241;1132;-45
2021/06/16 09:32:09;;;;;;;;;;;23.40;48.70;;;;;;490496;241;1303;-45
2021/06/16 09:34:10;;;;;;;;;;;23.50;48.70;;;;;;491103;241;1053;-45
2021/06/16 09:36:13;;;;;;;;;;;23.50;48.70;;;;;;490624;241;1332;-45
2021/06/16 09:38:13;;;;;;;;;;;23.50;48.70;;;;;;490831;241;2419;-45
2021/06/16 09:40:14;;;;;;;;;;;23.50;48.70;;;;;;491197;241;1235;-45
2021/06/16 09:42:15;;;;;;;;;;;23.50;48.70;;;;;;490597;241;2188;-45
2021/06/16 09:44:17;;;;;;;;;;;23.60;48.70;;;;;;490997;241;1131;-45
2021/06/16 09:46:18;;;;;;;;;;;23.60;48.60;;;;;;490426;241;1269;-45
2021/06/16 09:48:20;;;;;;;;;;;23.60;48.60;;;;;;490911;241;1086;-45
2021/06/16 09:50:21;;;;;;;;;;;23.60;48.60;;;;;;490350;241;1290;-45
2021/06/16 09:52:23;;;;;;;;;;;23.60;48.60;;;;;;490467;241;1138;-45
2021/06/16 09:54:24;;;;;;;;;;;23.60;48.50;;;;;;490417;241;1071;-45
2021/06/16 09:56:25;;;;;;;;;;;23.60;48.60;;;;;;490421;241;1358;-45
2021/06/16 09:58:27;;;;;;;;;;;23.60;48.60;;;;;;490522;241;1120;-45
2021/06/16 10:00:28;;;;;;;;;;;23.60;48.70;;;;;;490505;241;1257;-45
2021/06/16 10:02:30;;;;;;;;;;;23.60;48.60;;;;;;490591;241;2133;-45
2021/06/16 10:04:31;;;;;;;;;;;23.60;48.60;;;;;;490504;241;1142;-45
2021/06/16 10:06:33;;;;;;;;;;;23.60;48.50;;;;;;490498;241;1158;-45
2021/06/16 10:08:34;;;;;;;;;;;23.70;48.50;;;;;;490024;241;1083;-45
2021/06/16 10:10:35;;;;;;;;;;;23.70;48.40;;;;;;490141;241;1224;-45
2021/06/16 10:12:37;;;;;;;;;;;23.70;48.40;;;;;;490264;241;1274;-45
2021/06/16 10:14:38;;;;;;;;;;;23.70;48.40;;;;;;490516;241;1094;-45
2021/06/16 10:16:39;;;;;;;;;;;23.70;48.40;;;;;;490536;241;1198;-45
2021/06/16 10:18:42;;;;;;;;;;;23.70;48.50;;;;;;490415;241;1144;-45
2021/06/16 10:20:42;;;;;;;;;;;23.70;48.50;;;;;;490401;241;2015;-45
2021/06/16 10:22:43;;;;;;;;;;;23.70;48.50;;;;;;490432;241;2134;-45
2021/06/16 10:24:45;;;;;;;;;;;23.70;48.50;;;;;;490425;241;1132;-45
2021/06/16 10:26:46;;;;;;;;;;;23.70;48.50;;;;;;490417;241;1280;-45
2021/06/16 10:28:47;;;;;;;;;;;23.70;48.50;;;;;;490513;241;1166;-45
2021/06/16 10:30:49;;;;;;;;;;;23.80;48.50;;;;;;490347;241;1118;-45
2021/06/16 10:32:50;;;;;;;;;;;23.80;48.50;;;;;;490329;241;1188;-45
2021/06/16 10:34:51;;;;;;;;;;;23.80;48.40;;;;;;490359;241;1267;-45
2021/06/16 10:36:53;;;;;;;;;;;23.80;48.40;;;;;;490613;240;1169;-45
2021/06/16 10:38:54;;;;;;;;;;;23.80;48.30;;;;;;491188;241;860;-45
2021/06/16 10:40:57;;;;;;;;;;;23.80;48.40;;;;;;491078;241;1112;-45
2021/06/16 10:42:57;;;;;;;;;;;23.90;48.40;;;;;;489917;241;2343;-45
2021/06/16 10:44:58;;;;;;;;;;;23.80;48.30;;;;;;490610;241;1265;-45
2021/06/16 10:46:59;;;;;;;;;;;23.80;48.40;;;;;;490129;241;1253;-45
2021/06/16 10:49:01;;;;;;;;;;;23.80;48.50;;;;;;491267;241;1095;-45
2021/06/16 10:51:02;;;;;;;;;;;23.80;48.50;;;;;;490993;241;2127;-45
2021/06/16 10:53:03;;;;;;;;;;;23.80;48.50;;;;;;491015;241;1298;-45
2021/06/16 10:55:05;;;;;;;;;;;23.80;48.40;;;;;;490690;241;1335;-45
2021/06/16 10:57:06;;;;;;;;;;;23.80;48.50;;;;;;490569;241;1292;-45
2021/06/16 10:59:07;;;;;;;;;;;23.80;48.60;;;;;;491182;241;1168;-45
2021/06/16 11:01:10;;;;;;;;;;;23.80;48.70;;;;;;490667;241;1138;-45
2021/06/16 11:03:12;;;;;;;;;;;23.80;48.70;;;;;;490559;241;2201;-45
2021/06/16 11:05:11;;;;;;;;;;;23.80;48.70;;;;;;490443;241;1416;-45
2021/06/16 11:07:13;;;;;;;;;;;23.80;48.70;;;;;;490686;241;1145;-45
2021/06/16 11:09:14;;;;;;;;;;;23.70;48.60;;;;;;491084;241;1248;-45
2021/06/16 11:11:15;;;;;;;;;;;23.80;48.70;;;;;;490752;241;1329;-45
2021/06/16 11:13:17;;;;;;;;;;;23.70;48.70;;;;;;490929;241;1228;-45
2021/06/16 11:15:18;;;;;;;;;;;23.70;48.70;;;;;;490313;241;1240;-45
2021/06/16 11:17:20;;;;;;;;;;;23.80;48.70;;;;;;491095;241;1248;-45
2021/06/16 11:19:23;;;;;;;;;;;23.70;48.70;;;;;;490714;241;1159;-45
2021/06/16 11:21:22;;;;;;;;;;;23.70;48.70;;;;;;490564;241;1773;-45
2021/06/16 11:23:24;;;;;;;;;;;23.70;48.80;;;;;;490642;241;2203;-45
2021/06/16 11:25:27;;;;;;;;;;;23.70;48.70;;;;;;490575;242;2038;-45
2021/06/16 11:27:26;;;;;;;;;;;23.70;48.70;;;;;;490807;241;2130;-45
2021/06/16 11:29:28;;;;;;;;;;;23.70;48.70;;;;;;491081;241;1264;-45
2021/06/16 11:31:29;;;;;;;;;;;23.70;48.70;;;;;;490362;241;1197;-45
2021/06/16 11:33:34;;;;;;;;;;;23.80;48.70;;;;;;490460;241;1131;-45
2021/06/16 11:35:35;;;;;;;;;;;23.80;48.70;;;;;;490472;241;1314;-45
2021/06/16 11:37:36;;;;;;;;;;;23.80;48.80;;;;;;490464;241;1219;-45
2021/06/16 11:39:37;;;;;;;;;;;23.80;48.70;;;;;;490442;241;1154;-45
2021/06/16 11:41:39;;;;;;;;;;;23.80;48.70;;;;;;490564;241;1463;-45
2021/06/16 11:43:40;;;;;;;;;;;23.80;48.80;;;;;;491120;241;2188;-45
2021/06/16 11:45:41;;;;;;;;;;;23.70;48.80;;;;;;490346;241;1317;-45
2021/06/16 11:47:43;;;;;;;;;;;23.80;48.70;;;;;;490265;241;1230;-45
2021/06/16 11:49:44;;;;;;;;;;;23.80;48.70;;;;;;490324;241;1147;-45
2021/06/16 11:51:46;;;;;;;;;;;23.80;48.70;;;;;;489918;241;1254;-45
2021/06/16 11:53:47;;;;;;;;;;;23.80;48.60;;;;;;490467;241;1212;-45
2021/06/16 11:55:48;;;;;;;;;;;23.80;48.60;;;;;;490331;241;1114;-45
2021/06/16 11:57:50;;;;;;;;;;;23.80;48.70;;;;;;490279;241;1204;-45